sensor_id;sensor_type;location;lat;lon;timestamp;temperature;humidity
15967;DHT22;15175;48.154;11.534;2023-06-10T00:02:21;19.10;99.90
15967;DHT22;15175;48.154;11.534;2023-06-10T00:04:49;19.10;99.90
15967;DHT22;15175;48.154;11.534;2023-06-10T00:07:16;19.10;99.90
15967;DHT22;15175;48.154;11.534;2023-06-10T00:09:43;19.00;99.90
15967;DHT22;15175;48.154;11.534;2023-06-10T00:12:10;19.00;99.90
15967;DHT22;15175;48.154;11.534;2023-06-10T00:14:39;19.00;99.90
15967;DHT22;15175;48.154;11.534;2023-06-10T00:17:07;18.90;99.90
15967;DHT22;15175;48.154;11.534;2023-06-10T00:19:37;18.90;99.90
15967;DHT22;15175;48.154;11.534;2023-06-10T00:22:07;18.80;99.90
15967;DHT22;15175;48.154;11.534;2023-06-10T00:24:35;18.80;99.90
15967;DHT22;15175;48.154;11.534;2023-06-10T00:27:02;18.80;99.90
15967;DHT22;15175;48.154;11.534;2023-06-10T00:29:29;18.80;99.90
15967;DHT22;15175;48.154;11.534;2023-06-10T00:31:58;18.80;99.90
15967;DHT22;15175;48.154;11.534;2023-06-10T00:34:25;18.80;99.90
15967;DHT22;15175;48.154;11.534;2023-06-10T00:36:53;18.70;99.90
15967;DHT22;15175;48.154;11.534;2023-06-10T00:39:22;18.70;99.90
15967;DHT22;15175;48.154;11.534;2023-06-10T00:41:49;18.60;99.90
15967;DHT22;15175;48.154;11.534;2023-06-10T00:44:16;18.50;99.90
15967;DHT22;15175;48.154;11.534;2023-06-10T00:46:44;18.50;99.90
15967;DHT22;15175;48.154;11.534;2023-06-10T00:49:11;18.40;99.90
15967;DHT22;15175;48.154;11.534;2023-06-10T00:51:38;18.40;99.90
15967;DHT22;15175;48.154;11.534;2023-06-10T00:54:07;18.40;99.90
15967;DHT22;15175;48.154;11.534;2023-06-10T00:56:35;18.30;99.90
15967;DHT22;15175;48.154;11.534;2023-06-10T00:59:03;18.30;99.90
15967;DHT22;15175;48.154;11.534;2023-06-10T01:01:30;18.30;99.90
15967;DHT22;15175;48.154;11.534;2023-06-10T01:04:01;18.20;99.90
15967;DHT22;15175;48.154;11.534;2023-06-10T01:06:35;18.20;99.90
15967;DHT22;15175;48.154;11.534;2023-06-10T01:09:12;18.10;99.90
15967;DHT22;15175;48.154;11.534;2023-06-10T01:11:46;18.10;99.90
15967;DHT22;15175;48.154;11.534;2023-06-10T01:14:14;18.00;99.90
15967;DHT22;15175;48.154;11.534;2023-06-10T01:16:42;17.90;99.90
15967;DHT22;15175;48.154;11.534;2023-06-10T01:19:11;17.90;99.90
15967;DHT22;15175;48.154;11.534;2023-06-10T01:21:41;17.90;99.90
15967;DHT22;15175;48.154;11.534;2023-06-10T01:24:14;17.90;99.90
15967;DHT22;15175;48.154;11.534;2023-06-10T01:26:45;17.80;99.90
15967;DHT22;15175;48.154;11.534;2023-06-10T01:29:21;17.80;99.90
15967;DHT22;15175;48.154;11.534;2023-06-10T01:31:57;17.70;99.90
15967;DHT22;15175;48.154;11.534;2023-06-10T01:34:29;17.70;99.90
15967;DHT22;15175;48.154;11.534;2023-06-10T01:37:00;17.70;99.90
15967;DHT22;15175;48.154;11.534;2023-06-10T01:39:29;17.70;99.90
15967;DHT22;15175;48.154;11.534;2023-06-10T01:41:58;17.70;99.90
15967;DHT22;15175;48.154;11.534;2023-06-10T01:44:25;17.60;99.90
15967;DHT22;15175;48.154;11.534;2023-06-10T01:46:52;17.60;99.90
15967;DHT22;15175;48.154;11.534;2023-06-10T01:49:19;17.60;99.90
15967;DHT22;15175;48.154;11.534;2023-06-10T01:51:47;17.50;99.90
15967;DHT22;15175;48.154;11.534;2023-06-10T01:54:16;17.50;99.90
15967;DHT22;15175;48.154;11.534;2023-06-10T01:56:43;17.50;99.90
15967;DHT22;15175;48.154;11.534;2023-06-10T01:59:11;17.50;99.90
15967;DHT22;15175;48.154;11.534;2023-06-10T02:01:38;17.50;99.90
15967;DHT22;15175;48.154;11.534;2023-06-10T02:04:05;17.50;99.90
15967;DHT22;15175;48.154;11.534;2023-06-10T02:06:32;17.50;99.90
15967;DHT22;15175;48.154;11.534;2023-06-10T02:09:00;17.50;99.90
15967;DHT22;15175;48.154;11.534;2023-06-10T02:11:30;17.50;99.90
15967;DHT22;15175;48.154;11.534;2023-06-10T02:13:57;17.50;99.90
15967;DHT22;15175;48.154;11.534;2023-06-10T02:16:25;17.40;99.90
15967;DHT22;15175;48.154;11.534;2023-06-10T02:18:52;17.40;99.90
15967;DHT22;15175;48.154;11.534;2023-06-10T02:21:20;17.40;99.90
15967;DHT22;15175;48.154;11.534;2023-06-10T02:23:47;17.40;99.90
15967;DHT22;15175;48.154;11.534;2023-06-10T02:26:14;17.40;99.90
15967;DHT22;15175;48.154;11.534;2023-06-10T02:28:44;17.40;99.90
15967;DHT22;15175;48.154;11.534;2023-06-10T02:31:13;17.40;99.90
15967;DHT22;15175;48.154;11.534;2023-06-10T02:33:44;17.30;99.90
15967;DHT22;15175;48.154;11.534;2023-06-10T02:36:12;17.40;99.90
15967;DHT22;15175;48.154;11.534;2023-06-10T02:38:41;17.40;99.90
15967;DHT22;15175;48.154;11.534;2023-06-10T02:41:09;17.40;99.90
15967;DHT22;15175;48.154;11.534;2023-06-10T02:43:36;17.30;99.90
15967;DHT22;15175;48.154;11.534;2023-06-10T02:46:05;17.30;99.90
15967;DHT22;15175;48.154;11.534;2023-06-10T02:48:40;17.30;99.90
15967;DHT22;15175;48.154;11.534;2023-06-10T02:51:09;17.20;99.90
15967;DHT22;15175;48.154;11.534;2023-06-10T02:53:40;17.20;99.90
15967;DHT22;15175;48.154;11.534;2023-06-10T02:56:10;17.20;99.90
15967;DHT22;15175;48.154;11.534;2023-06-10T02:58:38;17.20;99.90
15967;DHT22;15175;48.154;11.534;2023-06-10T03:01:08;17.20;99.90
15967;DHT22;15175;48.154;11.534;2023-06-10T03:03:50;17.20;99.90
15967;DHT22;15175;48.154;11.534;2023-06-10T03:06:18;17.20;99.90
15967;DHT22;15175;48.154;11.534;2023-06-10T03:08:47;17.20;99.90
15967;DHT22;15175;48.154;11.534;2023-06-10T03:11:17;17.30;99.90
15967;DHT22;15175;48.154;11.534;2023-06-10T03:13:45;17.30;99.90
15967;DHT22;15175;48.154;11.534;2023-06-10T03:16:17;17.20;99.90
15967;DHT22;15175;48.154;11.534;2023-06-10T03:18:45;17.20;99.90
15967;DHT22;15175;48.154;11.534;2023-06-10T03:21:13;17.20;99.90
15967;DHT22;15175;48.154;11.534;2023-06-10T03:23:41;17.20;99.90
15967;DHT22;15175;48.154;11.534;2023-06-10T03:26:08;17.20;99.90
15967;DHT22;15175;48.154;11.534;2023-06-10T03:28:38;17.10;99.90
15967;DHT22;15175;48.154;11.534;2023-06-10T03:31:06;17.20;99.90
15967;DHT22;15175;48.154;11.534;2023-06-10T03:33:35;17.20;99.90
15967;DHT22;15175;48.154;11.534;2023-06-10T03:36:04;17.10;99.90
15967;DHT22;15175;48.154;11.534;2023-06-10T03:38:32;17.10;99.90
15967;DHT22;15175;48.154;11.534;2023-06-10T03:40:59;17.10;99.90
15967;DHT22;15175;48.154;11.534;2023-06-10T03:43:26;17.00;99.90
15967;DHT22;15175;48.154;11.534;2023-06-10T03:45:54;17.00;99.90
15967;DHT22;15175;48.154;11.534;2023-06-10T03:48:21;17.00;99.90
15967;DHT22;15175;48.154;11.534;2023-06-10T03:50:52;17.00;99.90
15967;DHT22;15175;48.154;11.534;2023-06-10T03:53:21;16.90;99.90
15967;DHT22;15175;48.154;11.534;2023-06-10T03:55:48;16.90;99.90
15967;DHT22;15175;48.154;11.534;2023-06-10T03:58:19;16.90;99.90
15967;DHT22;15175;48.154;11.534;2023-06-10T04:00:46;17.00;99.90
15967;DHT22;15175;48.154;11.534;2023-06-10T04:03:14;16.90;99.90
15967;DHT22;15175;48.154;11.534;2023-06-10T04:05:45;16.90;99.90
15967;DHT22;15175;48.154;11.534;2023-06-10T04:08:14;16.90;99.90
15967;DHT22;15175;48.154;11.534;2023-06-10T04:10:41;16.90;99.90
15967;DHT22;15175;48.154;11.534;2023-06-10T04:13:08;17.00;99.90
15967;DHT22;15175;48.154;11.534;2023-06-10T04:15:40;17.00;99.90
15967;DHT22;15175;48.154;11.534;2023-06-10T04:18:11;16.90;99.90
15967;DHT22;15175;48.154;11.534;2023-06-10T04:20:38;16.80;99.90
15967;DHT22;15175;48.154;11.534;2023-06-10T04:23:06;16.90;99.90
15967;DHT22;15175;48.154;11.534;2023-06-10T04:25:35;16.90;99.90
15967;DHT22;15175;48.154;11.534;2023-06-10T04:28:03;16.90;99.90
15967;DHT22;15175;48.154;11.534;2023-06-10T04:30:31;16.90;99.90
15967;DHT22;15175;48.154;11.534;2023-06-10T04:33:00;16.90;99.90
15967;DHT22;15175;48.154;11.534;2023-06-10T04:35:27;17.00;99.90
15967;DHT22;15175;48.154;11.534;2023-06-10T04:37:56;17.00;99.90
15967;DHT22;15175;48.154;11.534;2023-06-10T04:40:24;17.00;99.90
15967;DHT22;15175;48.154;11.534;2023-06-10T04:42:52;17.00;99.90
15967;DHT22;15175;48.154;11.534;2023-06-10T04:45:20;17.00;99.90
15967;DHT22;15175;48.154;11.534;2023-06-10T04:47:48;17.00;99.90
15967;DHT22;15175;48.154;11.534;2023-06-10T04:50:15;17.10;99.90
15967;DHT22;15175;48.154;11.534;2023-06-10T04:52:42;17.20;99.90
15967;DHT22;15175;48.154;11.534;2023-06-10T04:55:10;17.20;99.90
15967;DHT22;15175;48.154;11.534;2023-06-10T04:57:37;17.20;99.90
15967;DHT22;15175;48.154;11.534;2023-06-10T05:00:07;17.20;99.90
15967;DHT22;15175;48.154;11.534;2023-06-10T05:02:34;17.30;99.90
15967;DHT22;15175;48.154;11.534;2023-06-10T05:05:02;17.30;99.90
15967;DHT22;15175;48.154;11.534;2023-06-10T05:07:29;17.30;99.90
15967;DHT22;15175;48.154;11.534;2023-06-10T05:09:56;17.30;99.90
15967;DHT22;15175;48.154;11.534;2023-06-10T05:12:23;17.40;99.90
15967;DHT22;15175;48.154;11.534;2023-06-10T05:14:50;17.40;99.90
15967;DHT22;15175;48.154;11.534;2023-06-10T05:17:19;17.40;99.90
15967;DHT22;15175;48.154;11.534;2023-06-10T05:19:46;17.40;99.90
15967;DHT22;15175;48.154;11.534;2023-06-10T05:22:13;17.50;99.90
15967;DHT22;15175;48.154;11.534;2023-06-10T05:24:42;17.50;99.90
15967;DHT22;15175;48.154;11.534;2023-06-10T05:27:09;17.60;99.90
15967;DHT22;15175;48.154;11.534;2023-06-10T05:29:38;17.60;99.90
15967;DHT22;15175;48.154;11.534;2023-06-10T05:32:06;17.60;99.90
15967;DHT22;15175;48.154;11.534;2023-06-10T05:34:35;17.70;99.90
15967;DHT22;15175;48.154;11.534;2023-06-10T05:37:03;17.80;99.90
15967;DHT22;15175;48.154;11.534;2023-06-10T05:39:30;17.80;99.90
15967;DHT22;15175;48.154;11.534;2023-06-10T05:41:58;17.90;99.90
15967;DHT22;15175;48.154;11.534;2023-06-10T05:44:27;17.90;99.90
15967;DHT22;15175;48.154;11.534;2023-06-10T05:46:54;18.00;99.90
15967;DHT22;15175;48.154;11.534;2023-06-10T05:49:21;18.00;99.90
15967;DHT22;15175;48.154;11.534;2023-06-10T05:51:50;18.10;99.90
15967;DHT22;15175;48.154;11.534;2023-06-10T05:54:18;18.30;99.90
15967;DHT22;15175;48.154;11.534;2023-06-10T05:56:45;18.40;99.90
15967;DHT22;15175;48.154;11.534;2023-06-10T05:59:12;18.80;99.90
15967;DHT22;15175;48.154;11.534;2023-06-10T06:01:40;19.00;99.90
15967;DHT22;15175;48.154;11.534;2023-06-10T06:04:07;19.30;99.90
15967;DHT22;15175;48.154;11.534;2023-06-10T06:06:35;19.50;99.90
15967;DHT22;15175;48.154;11.534;2023-06-10T06:09:03;19.80;99.90
15967;DHT22;15175;48.154;11.534;2023-06-10T06:11:31;20.10;99.90
15967;DHT22;15175;48.154;11.534;2023-06-10T06:13:58;20.30;99.90
15967;DHT22;15175;48.154;11.534;2023-06-10T06:16:25;20.70;99.90
15967;DHT22;15175;48.154;11.534;2023-06-10T06:18:52;21.00;99.90
15967;DHT22;15175;48.154;11.534;2023-06-10T06:21:19;21.30;99.90
15967;DHT22;15175;48.154;11.534;2023-06-10T06:23:46;21.60;99.90
15967;DHT22;15175;48.154;11.534;2023-06-10T06:26:15;21.90;99.90
15967;DHT22;15175;48.154;11.534;2023-06-10T06:28:42;22.10;99.90
15967;DHT22;15175;48.154;11.534;2023-06-10T06:31:09;22.40;99.90
15967;DHT22;15175;48.154;11.534;2023-06-10T06:33:36;22.60;99.90
15967;DHT22;15175;48.154;11.534;2023-06-10T06:36:04;22.50;99.90
15967;DHT22;15175;48.154;11.534;2023-06-10T06:38:31;22.40;99.90
15967;DHT22;15175;48.154;11.534;2023-06-10T06:40:59;22.20;99.90
15967;DHT22;15175;48.154;11.534;2023-06-10T06:43:30;22.10;99.90
15967;DHT22;15175;48.154;11.534;2023-06-10T06:46:16;22.10;99.90
15967;DHT22;15175;48.154;11.534;2023-06-10T06:48:43;22.10;99.90
15967;DHT22;15175;48.154;11.534;2023-06-10T06:51:10;22.10;99.90
15967;DHT22;15175;48.154;11.534;2023-06-10T06:53:37;22.20;99.90
15967;DHT22;15175;48.154;11.534;2023-06-10T06:56:10;22.50;99.90
15967;DHT22;15175;48.154;11.534;2023-06-10T06:58:38;22.60;99.90
15967;DHT22;15175;48.154;11.534;2023-06-10T07:01:05;22.70;99.90
15967;DHT22;15175;48.154;11.534;2023-06-10T07:03:33;23.00;99.90
15967;DHT22;15175;48.154;11.534;2023-06-10T07:06:00;23.20;99.90
15967;DHT22;15175;48.154;11.534;2023-06-10T07:08:27;23.30;99.90
15967;DHT22;15175;48.154;11.534;2023-06-10T07:10:55;23.40;99.90
15967;DHT22;15175;48.154;11.534;2023-06-10T07:13:22;23.70;99.90
15967;DHT22;15175;48.154;11.534;2023-06-10T07:15:50;23.90;99.90
15967;DHT22;15175;48.154;11.534;2023-06-10T07:18:17;24.30;99.90
15967;DHT22;15175;48.154;11.534;2023-06-10T07:20:44;24.50;99.90
15967;DHT22;15175;48.154;11.534;2023-06-10T07:23:12;24.50;99.90
15967;DHT22;15175;48.154;11.534;2023-06-10T07:25:40;24.60;99.90
15967;DHT22;15175;48.154;11.534;2023-06-10T07:28:07;24.80;99.90
15967;DHT22;15175;48.154;11.534;2023-06-10T07:30:34;24.60;99.90
15967;DHT22;15175;48.154;11.534;2023-06-10T07:33:03;24.60;99.90
15967;DHT22;15175;48.154;11.534;2023-06-10T07:35:33;24.60;99.90
15967;DHT22;15175;48.154;11.534;2023-06-10T07:38:00;24.80;99.90
15967;DHT22;15175;48.154;11.534;2023-06-10T07:40:27;24.90;99.90
15967;DHT22;15175;48.154;11.534;2023-06-10T07:42:55;24.90;99.90
15967;DHT22;15175;48.154;11.534;2023-06-10T07:45:22;25.30;99.90
15967;DHT22;15175;48.154;11.534;2023-06-10T07:47:50;25.50;99.90
15967;DHT22;15175;48.154;11.534;2023-06-10T07:50:18;25.70;99.90
15967;DHT22;15175;48.154;11.534;2023-06-10T07:52:45;25.80;99.90
15967;DHT22;15175;48.154;11.534;2023-06-10T07:55:12;25.90;99.90
15967;DHT22;15175;48.154;11.534;2023-06-10T07:57:39;25.90;99.90
15967;DHT22;15175;48.154;11.534;2023-06-10T08:00:07;25.90;99.90
15967;DHT22;15175;48.154;11.534;2023-06-10T08:02:41;26.00;99.90
15967;DHT22;15175;48.154;11.534;2023-06-10T08:05:08;26.40;99.90
15967;DHT22;15175;48.154;11.534;2023-06-10T08:07:37;26.80;99.40
15967;DHT22;15175;48.154;11.534;2023-06-10T08:10:05;26.90;99.40
15967;DHT22;15175;48.154;11.534;2023-06-10T08:12:32;27.00;98.30
15967;DHT22;15175;48.154;11.534;2023-06-10T08:15:00;27.20;98.00
15967;DHT22;15175;48.154;11.534;2023-06-10T08:17:27;26.70;97.90
15967;DHT22;15175;48.154;11.534;2023-06-10T08:19:54;26.50;98.30
15967;DHT22;15175;48.154;11.534;2023-06-10T08:22:21;26.30;98.30
15967;DHT22;15175;48.154;11.534;2023-06-10T08:24:50;26.20;99.00
15967;DHT22;15175;48.154;11.534;2023-06-10T08:27:17;26.30;99.10
15967;DHT22;15175;48.154;11.534;2023-06-10T08:29:44;26.50;98.60
15967;DHT22;15175;48.154;11.534;2023-06-10T08:32:11;26.70;98.00
15967;DHT22;15175;48.154;11.534;2023-06-10T08:34:39;26.80;98.00
15967;DHT22;15175;48.154;11.534;2023-06-10T08:37:06;26.80;97.80
15967;DHT22;15175;48.154;11.534;2023-06-10T08:39:34;26.90;97.80
15967;DHT22;15175;48.154;11.534;2023-06-10T08:42:11;27.00;97.80
15967;DHT22;15175;48.154;11.534;2023-06-10T08:44:42;27.10;97.90
15967;DHT22;15175;48.154;11.534;2023-06-10T08:47:13;27.50;97.70
15967;DHT22;15175;48.154;11.534;2023-06-10T08:49:43;27.90;97.00
15967;DHT22;15175;48.154;11.534;2023-06-10T08:52:14;28.10;96.90
15967;DHT22;15175;48.154;11.534;2023-06-10T08:54:43;28.30;96.30
15967;DHT22;15175;48.154;11.534;2023-06-10T08:57:17;27.90;96.00
15967;DHT22;15175;48.154;11.534;2023-06-10T08:59:46;27.60;96.70
15967;DHT22;15175;48.154;11.534;2023-06-10T09:02:15;27.30;97.10
15967;DHT22;15175;48.154;11.534;2023-06-10T09:04:46;27.10;97.20
15967;DHT22;15175;48.154;11.534;2023-06-10T09:07:15;27.20;97.60
15967;DHT22;15175;48.154;11.534;2023-06-10T09:09:43;27.30;96.90
15967;DHT22;15175;48.154;11.534;2023-06-10T09:12:12;27.00;96.80
15967;DHT22;15175;48.154;11.534;2023-06-10T09:14:42;26.70;97.20
15967;DHT22;15175;48.154;11.534;2023-06-10T09:17:09;26.70;97.70
15967;DHT22;15175;48.154;11.534;2023-06-10T09:19:38;26.70;97.70
15967;DHT22;15175;48.154;11.534;2023-06-10T09:22:07;26.60;97.60
15967;DHT22;15175;48.154;11.534;2023-06-10T09:24:34;26.50;97.90
15967;DHT22;15175;48.154;11.534;2023-06-10T09:27:06;26.60;97.50
15967;DHT22;15175;48.154;11.534;2023-06-10T09:29:47;26.60;97.60
15967;DHT22;15175;48.154;11.534;2023-06-10T09:32:15;26.50;97.60
15967;DHT22;15175;48.154;11.534;2023-06-10T09:34:44;26.20;97.40
15967;DHT22;15175;48.154;11.534;2023-06-10T09:37:11;26.10;97.80
15967;DHT22;15175;48.154;11.534;2023-06-10T09:39:40;26.30;98.10
15967;DHT22;15175;48.154;11.534;2023-06-10T09:42:16;26.30;98.40
15967;DHT22;15175;48.154;11.534;2023-06-10T09:44:50;26.30;98.20
15967;DHT22;15175;48.154;11.534;2023-06-10T09:47:20;26.20;97.70
15967;DHT22;15175;48.154;11.534;2023-06-10T09:49:48;26.20;98.40
15967;DHT22;15175;48.154;11.534;2023-06-10T09:52:21;26.60;97.60
15967;DHT22;15175;48.154;11.534;2023-06-10T09:54:49;26.80;97.20
15967;DHT22;15175;48.154;11.534;2023-06-10T09:57:18;26.80;97.10
15967;DHT22;15175;48.154;11.534;2023-06-10T09:59:45;26.60;96.80
15967;DHT22;15175;48.154;11.534;2023-06-10T10:02:17;26.60;96.90
15967;DHT22;15175;48.154;11.534;2023-06-10T10:04:44;26.80;97.10
15967;DHT22;15175;48.154;11.534;2023-06-10T10:07:12;27.20;95.50
15967;DHT22;15175;48.154;11.534;2023-06-10T10:09:40;27.10;94.80
15967;DHT22;15175;48.154;11.534;2023-06-10T10:12:10;26.60;94.80
15967;DHT22;15175;48.154;11.534;2023-06-10T10:14:38;26.30;96.00
15967;DHT22;15175;48.154;11.534;2023-06-10T10:17:10;26.10;96.70
15967;DHT22;15175;48.154;11.534;2023-06-10T10:19:43;25.80;97.30
15967;DHT22;15175;48.154;11.534;2023-06-10T10:22:17;25.70;97.30
15967;DHT22;15175;48.154;11.534;2023-06-10T10:24:49;25.70;97.50
15967;DHT22;15175;48.154;11.534;2023-06-10T10:27:20;25.60;97.20
15967;DHT22;15175;48.154;11.534;2023-06-10T10:29:51;25.80;96.80
15967;DHT22;15175;48.154;11.534;2023-06-10T10:32:22;26.00;96.60
15967;DHT22;15175;48.154;11.534;2023-06-10T10:34:56;26.00;96.90
15967;DHT22;15175;48.154;11.534;2023-06-10T10:37:26;25.90;97.00
15967;DHT22;15175;48.154;11.534;2023-06-10T10:39:54;26.10;96.10
15967;DHT22;15175;48.154;11.534;2023-06-10T10:42:21;26.10;95.30
15967;DHT22;15175;48.154;11.534;2023-06-10T10:44:49;26.00;96.10
15967;DHT22;15175;48.154;11.534;2023-06-10T10:47:18;26.20;96.40
15967;DHT22;15175;48.154;11.534;2023-06-10T10:49:50;26.40;96.50
15967;DHT22;15175;48.154;11.534;2023-06-10T10:52:20;26.70;95.80
15967;DHT22;15175;48.154;11.534;2023-06-10T10:54:47;26.80;94.90
15967;DHT22;15175;48.154;11.534;2023-06-10T10:57:17;26.90;94.90
15967;DHT22;15175;48.154;11.534;2023-06-10T10:59:55;27.00;95.00
15967;DHT22;15175;48.154;11.534;2023-06-10T11:02:36;27.10;94.50
15967;DHT22;15175;48.154;11.534;2023-06-10T11:05:05;27.40;94.00
15967;DHT22;15175;48.154;11.534;2023-06-10T11:07:34;27.50;94.20
15967;DHT22;15175;48.154;11.534;2023-06-10T11:10:05;27.70;93.60
15967;DHT22;15175;48.154;11.534;2023-06-10T11:12:50;27.60;92.90
15967;DHT22;15175;48.154;11.534;2023-06-10T11:15:19;27.50;93.20
15967;DHT22;15175;48.154;11.534;2023-06-10T11:18:09;27.20;92.90
15967;DHT22;15175;48.154;11.534;2023-06-10T11:20:52;27.10;93.20
15967;DHT22;15175;48.154;11.534;2023-06-10T11:23:39;27.20;94.00
15967;DHT22;15175;48.154;11.534;2023-06-10T11:26:20;27.20;94.20
15967;DHT22;15175;48.154;11.534;2023-06-10T11:29:16;27.20;94.50
15967;DHT22;15175;48.154;11.534;2023-06-10T11:31:45;27.10;94.30
15967;DHT22;15175;48.154;11.534;2023-06-10T11:34:13;26.80;93.90
15967;DHT22;15175;48.154;11.534;2023-06-10T11:36:42;26.60;95.20
15967;DHT22;15175;48.154;11.534;2023-06-10T11:39:12;26.40;95.90
15967;DHT22;15175;48.154;11.534;2023-06-10T11:41:40;26.40;95.60
15967;DHT22;15175;48.154;11.534;2023-06-10T11:44:08;26.30;95.80
15967;DHT22;15175;48.154;11.534;2023-06-10T11:46:36;26.40;96.20
15967;DHT22;15175;48.154;11.534;2023-06-10T11:49:04;26.40;96.80
15967;DHT22;15175;48.154;11.534;2023-06-10T11:51:34;26.60;96.50
15967;DHT22;15175;48.154;11.534;2023-06-10T11:54:01;26.90;95.70
15967;DHT22;15175;48.154;11.534;2023-06-10T11:56:31;27.00;94.10
15967;DHT22;15175;48.154;11.534;2023-06-10T11:59:00;27.00;93.70
15967;DHT22;15175;48.154;11.534;2023-06-10T12:01:31;26.90;94.30
15967;DHT22;15175;48.154;11.534;2023-06-10T12:04:00;26.70;94.40
15967;DHT22;15175;48.154;11.534;2023-06-10T12:06:28;26.60;94.20
15967;DHT22;15175;48.154;11.534;2023-06-10T12:09:04;26.60;94.70
15967;DHT22;15175;48.154;11.534;2023-06-10T12:11:32;26.50;95.00
15967;DHT22;15175;48.154;11.534;2023-06-10T12:13:59;26.60;95.80
15967;DHT22;15175;48.154;11.534;2023-06-10T12:16:29;26.40;96.20
15967;DHT22;15175;48.154;11.534;2023-06-10T12:19:02;26.50;96.50
15967;DHT22;15175;48.154;11.534;2023-06-10T12:21:30;26.70;95.80
15967;DHT22;15175;48.154;11.534;2023-06-10T12:24:08;26.90;95.60
15967;DHT22;15175;48.154;11.534;2023-06-10T12:26:44;27.00;95.10
15967;DHT22;15175;48.154;11.534;2023-06-10T12:29:21;26.90;95.00
15967;DHT22;15175;48.154;11.534;2023-06-10T12:32:00;26.80;95.40
15967;DHT22;15175;48.154;11.534;2023-06-10T12:34:36;26.90;95.20
15967;DHT22;15175;48.154;11.534;2023-06-10T12:37:05;26.80;95.10
15967;DHT22;15175;48.154;11.534;2023-06-10T12:39:33;26.80;94.90
15967;DHT22;15175;48.154;11.534;2023-06-10T12:42:03;26.70;94.20
15967;DHT22;15175;48.154;11.534;2023-06-10T12:44:32;26.60;94.80
15967;DHT22;15175;48.154;11.534;2023-06-10T12:47:00;26.60;94.70
15967;DHT22;15175;48.154;11.534;2023-06-10T12:49:27;26.30;93.00
15967;DHT22;15175;48.154;11.534;2023-06-10T12:51:54;26.10;93.10
15967;DHT22;15175;48.154;11.534;2023-06-10T12:54:21;25.90;93.40
15967;DHT22;15175;48.154;11.534;2023-06-10T12:56:49;25.70;94.00
15967;DHT22;15175;48.154;11.534;2023-06-10T12:59:18;25.60;94.30
15967;DHT22;15175;48.154;11.534;2023-06-10T13:01:50;25.70;94.60
15967;DHT22;15175;48.154;11.534;2023-06-10T13:04:18;25.80;95.00
15967;DHT22;15175;48.154;11.534;2023-06-10T13:06:45;25.80;94.00
15967;DHT22;15175;48.154;11.534;2023-06-10T13:09:13;25.80;93.80
15967;DHT22;15175;48.154;11.534;2023-06-10T13:11:41;25.60;96.20
15967;DHT22;15175;48.154;11.534;2023-06-10T13:14:10;25.50;97.60
15967;DHT22;15175;48.154;11.534;2023-06-10T13:16:38;25.40;98.00
15967;DHT22;15175;48.154;11.534;2023-06-10T13:19:06;25.20;98.10
15967;DHT22;15175;48.154;11.534;2023-06-10T13:21:33;25.10;98.30
15967;DHT22;15175;48.154;11.534;2023-06-10T13:24:01;25.00;98.60
15967;DHT22;15175;48.154;11.534;2023-06-10T13:26:29;25.00;98.90
15967;DHT22;15175;48.154;11.534;2023-06-10T13:28:56;24.90;99.20
15967;DHT22;15175;48.154;11.534;2023-06-10T13:31:23;25.00;99.30
15967;DHT22;15175;48.154;11.534;2023-06-10T13:33:52;25.10;98.90
15967;DHT22;15175;48.154;11.534;2023-06-10T13:36:19;25.10;99.00
15967;DHT22;15175;48.154;11.534;2023-06-10T13:38:46;25.10;98.80
15967;DHT22;15175;48.154;11.534;2023-06-10T13:41:14;24.90;98.60
15967;DHT22;15175;48.154;11.534;2023-06-10T13:43:41;24.70;98.90
15967;DHT22;15175;48.154;11.534;2023-06-10T13:46:08;24.60;98.80
15967;DHT22;15175;48.154;11.534;2023-06-10T13:48:36;24.60;98.60
15967;DHT22;15175;48.154;11.534;2023-06-10T13:51:04;24.70;98.30
15967;DHT22;15175;48.154;11.534;2023-06-10T13:53:32;24.60;98.10
15967;DHT22;15175;48.154;11.534;2023-06-10T13:56:00;24.60;97.70
15967;DHT22;15175;48.154;11.534;2023-06-10T13:58:27;24.60;98.00
15967;DHT22;15175;48.154;11.534;2023-06-10T14:00:54;24.60;97.70
15967;DHT22;15175;48.154;11.534;2023-06-10T14:03:22;24.60;97.70
15967;DHT22;15175;48.154;11.534;2023-06-10T14:05:49;24.60;97.40
15967;DHT22;15175;48.154;11.534;2023-06-10T14:08:18;24.70;97.50
15967;DHT22;15175;48.154;11.534;2023-06-10T14:10:45;24.70;97.70
15967;DHT22;15175;48.154;11.534;2023-06-10T14:13:13;24.60;98.00
15967;DHT22;15175;48.154;11.534;2023-06-10T14:15:40;24.60;98.00
15967;DHT22;15175;48.154;11.534;2023-06-10T14:18:08;24.50;97.90
15967;DHT22;15175;48.154;11.534;2023-06-10T14:20:35;24.50;97.70
15967;DHT22;15175;48.154;11.534;2023-06-10T14:23:02;24.50;97.60
15967;DHT22;15175;48.154;11.534;2023-06-10T14:25:31;24.50;97.90
15967;DHT22;15175;48.154;11.534;2023-06-10T14:27:58;24.50;98.00
15967;DHT22;15175;48.154;11.534;2023-06-10T14:30:25;24.50;98.10
15967;DHT22;15175;48.154;11.534;2023-06-10T14:32:52;24.40;98.60
15967;DHT22;15175;48.154;11.534;2023-06-10T14:35:19;24.40;98.60
15967;DHT22;15175;48.154;11.534;2023-06-10T14:37:47;24.40;99.20
15967;DHT22;15175;48.154;11.534;2023-06-10T14:40:14;24.40;98.90
15967;DHT22;15175;48.154;11.534;2023-06-10T14:42:43;24.40;98.70
15967;DHT22;15175;48.154;11.534;2023-06-10T14:45:10;24.40;98.30
15967;DHT22;15175;48.154;11.534;2023-06-10T14:47:37;24.50;97.60
15967;DHT22;15175;48.154;11.534;2023-06-10T14:50:05;24.50;97.60
15967;DHT22;15175;48.154;11.534;2023-06-10T14:52:32;24.60;96.90
15967;DHT22;15175;48.154;11.534;2023-06-10T14:55:00;24.60;96.70
15967;DHT22;15175;48.154;11.534;2023-06-10T14:57:27;24.60;96.80
15967;DHT22;15175;48.154;11.534;2023-06-10T14:59:55;24.50;97.10
15967;DHT22;15175;48.154;11.534;2023-06-10T15:02:23;24.50;97.40
15967;DHT22;15175;48.154;11.534;2023-06-10T15:04:50;24.50;97.40
15967;DHT22;15175;48.154;11.534;2023-06-10T15:07:17;24.50;97.10
15967;DHT22;15175;48.154;11.534;2023-06-10T15:09:44;24.40;97.10
15967;DHT22;15175;48.154;11.534;2023-06-10T15:12:11;24.50;97.30
15967;DHT22;15175;48.154;11.534;2023-06-10T15:14:38;24.50;97.80
15967;DHT22;15175;48.154;11.534;2023-06-10T15:17:07;24.50;98.00
15967;DHT22;15175;48.154;11.534;2023-06-10T15:19:34;24.50;98.20
15967;DHT22;15175;48.154;11.534;2023-06-10T15:22:02;24.60;98.00
15967;DHT22;15175;48.154;11.534;2023-06-10T15:24:29;24.50;98.60
15967;DHT22;15175;48.154;11.534;2023-06-10T15:26:56;24.50;98.90